Fairmont, West Virginia
Current Conditions -  °F | °C
As of 6:53 AM on Saturday 01 Nov 2014 (Local Time) from KCKB Reporting Station
Light Rain Light Rain  
Wind Chill:   Ceiling: 700
Heat Index:   Visibility: 5mi
Dew Point:   Wind: 7mph
Humidity: 96%   Direction: 20°NNE
Pressure: 29.9"   Gusts: NA
Location:  39.48°N, 80.15°W
Report Text: KCKB 011053Z AUTO 02006KT 5SM -RA BR BKN007 OVC021 05/04 A2990 RMK AO2 RAB49 CIG 004V012 SLP125 P0000 T00500044
Loading
Personal Weather Stations






























Interactive Weather Map
Tropical Storm Tracking
New forecast layout! Learn more

10-Day Weather Forecast

Advertisements
Track Severe Weather on mobile